createdAt,value
2023-01-07T00:01:28.677Z,99482.72
2023-01-07T00:03:57.276Z,99481.88
2023-01-07T00:06:34.424Z,99475.84
2023-01-07T00:09:02.198Z,99479.34
2023-01-07T00:11:35.872Z,99477.66
2023-01-07T00:14:06.208Z,99471.69
2023-01-07T00:16:34.520Z,99479.34
2023-01-07T00:19:04.164Z,99481.03
2023-01-07T00:21:31.549Z,99479.28
2023-01-07T00:24:01.308Z,99467.81
2023-01-07T00:26:32.330Z,99473.94
2023-01-07T00:29:00.185Z,99468.94
2023-01-07T00:31:31.288Z,99464.69
2023-01-07T00:33:58.960Z,99457.56
2023-01-07T00:36:29.252Z,99450.44
2023-01-07T00:39:01.273Z,99454.66
2023-01-07T00:41:28.475Z,99450.31
2023-01-07T00:43:56.114Z,99450.25
2023-01-07T00:46:23.366Z,99448.50
2023-01-07T00:48:50.462Z,99443.41
2023-01-07T00:51:18.657Z,99438.28
2023-01-07T00:53:45.805Z,99440.88
2023-01-07T00:56:14.733Z,99441.75
2023-01-07T00:58:42.041Z,99427.31
2023-01-07T01:01:11.041Z,99441.75
2023-01-07T01:03:39.012Z,99431.09
2023-01-07T01:06:13.383Z,99432.63
2023-01-07T01:08:43.106Z,99435.13
2023-01-07T01:11:11.655Z,99429.13
2023-01-07T01:13:39.427Z,99430.81
2023-01-07T01:16:14.531Z,99428.16
2023-01-07T01:18:41.869Z,99428.22
2023-01-07T01:21:12.284Z,99425.03
2023-01-07T01:23:40.162Z,99427.44
2023-01-07T01:26:10.902Z,99430.03
2023-01-07T01:28:38.619Z,99427.63
2023-01-07T01:31:06.188Z,99431.72
2023-01-07T01:33:33.017Z,99432.56
2023-01-07T01:36:04.009Z,99428.28
2023-01-07T01:38:31.067Z,99429.13
2023-01-07T01:40:57.856Z,99422.19
2023-01-07T01:43:37.206Z,99419.59
2023-01-07T01:46:26.303Z,99424.78
2023-01-07T01:49:06.907Z,99422.25
2023-01-07T01:51:39.175Z,99423.25
2023-01-07T01:54:11.828Z,99428.44
2023-01-07T01:56:43.361Z,99422.38
2023-01-07T01:59:16.695Z,99412.97
2023-01-07T02:01:45.071Z,99411.19
2023-01-07T02:04:16.641Z,99414.69
2023-01-07T02:07:00.594Z,99411.03
2023-01-07T02:09:27.445Z,99400.81
2023-01-07T02:12:41.509Z,99401.66
2023-01-07T02:15:26.272Z,99379.78
2023-01-07T02:18:08.203Z,99395.69
2023-01-07T02:20:57.046Z,99402.63
2023-01-07T02:24:06.389Z,99399.28
2023-01-07T02:27:03.946Z,99392.41
2023-01-07T02:29:42.372Z,99395.06
2023-01-07T02:32:25.219Z,99385.53
2023-01-07T02:35:24.111Z,99387.28
2023-01-07T02:38:40.774Z,99370.25
2023-01-07T02:41:51.072Z,99377.78
2023-01-07T02:44:36.654Z,99370.00
2023-01-07T02:47:24.113Z,99371.94
2023-01-07T02:49:52.236Z,99355.56
2023-01-07T02:52:22.437Z,99356.41
2023-01-07T02:55:00.224Z,99324.41
2023-01-07T02:57:51.021Z,99351.28
2023-01-07T03:00:58.496Z,99344.41
2023-01-07T03:03:50.574Z,99347.84
2023-01-07T03:06:34.687Z,99349.53
2023-01-07T03:09:58.019Z,99339.09
2023-01-07T03:12:43.440Z,99332.25
2023-01-07T03:15:29.499Z,99334.13
2023-01-07T03:18:06.365Z,99331.47
2023-01-07T03:20:37.599Z,99330.69
2023-01-07T03:23:08.399Z,99320.47
2023-01-07T03:25:41.074Z,99320.25
2023-01-07T03:28:09.852Z,99309.38
2023-01-07T03:30:38.592Z,99316.91
2023-01-07T03:33:29.885Z,99313.41
2023-01-07T03:35:58.984Z,99294.06
2023-01-07T03:38:27.455Z,99307.44
2023-01-07T03:40:55.001Z,99311.72
2023-01-07T03:43:23.340Z,99299.66
2023-01-07T03:45:52.137Z,99287.00
2023-01-07T03:48:19.106Z,99287.13
2023-01-07T03:50:45.995Z,99295.47
2023-01-07T03:53:12.823Z,99295.47
2023-01-07T03:55:39.694Z,99282.00
2023-01-07T03:58:07.303Z,99284.28
2023-01-07T04:00:34.214Z,99286.84
2023-01-07T04:03:01.074Z,99279.94
2023-01-07T04:05:27.889Z,99285.13
2023-01-07T04:07:54.733Z,99273.91
2023-01-07T04:10:21.630Z,99267.81
2023-01-07T04:12:48.461Z,99269.59
2023-01-07T04:15:15.339Z,99265.22
2023-01-07T04:17:42.167Z,99264.34
2023-01-07T04:20:10.315Z,99264.34
2023-01-07T04:22:37.302Z,99265.22
2023-01-07T04:25:04.319Z,99261.88
2023-01-07T04:27:31.226Z,99263.56
2023-01-07T04:29:58.024Z,99252.34
2023-01-07T04:32:24.876Z,99255.00
2023-01-07T04:34:51.779Z,99249.75
2023-01-07T04:37:18.652Z,99256.63
2023-01-07T04:39:45.496Z,99238.03
2023-01-07T04:42:12.367Z,99251.53
2023-01-07T04:44:39.213Z,99238.63
2023-01-07T04:47:06.044Z,99243.88
2023-01-07T04:49:32.790Z,99237.81
2023-01-07T04:51:59.599Z,99238.63
2023-01-07T04:54:26.487Z,99238.63
2023-01-07T04:56:53.445Z,99230.91
2023-01-07T04:59:20.365Z,99230.03
2023-01-07T05:01:47.335Z,99230.84
2023-01-07T05:04:14.265Z,99226.59
2023-01-07T05:06:41.111Z,99220.56
2023-01-07T05:09:07.921Z,99223.16
2023-01-07T05:11:34.901Z,99217.22
2023-01-07T05:14:01.770Z,99218.03
2023-01-07T05:16:28.624Z,99218.13
2023-01-07T05:18:55.636Z,99209.50
2023-01-07T05:21:22.435Z,99206.97
2023-01-07T05:23:49.168Z,99204.31
2023-01-07T05:26:16.809Z,99201.78
2023-01-07T05:28:43.579Z,99206.09
2023-01-07T05:31:10.513Z,99200.91
2023-01-07T05:33:37.361Z,99200.97
2023-01-07T05:36:04.527Z,99203.56
2023-01-07T05:38:31.413Z,99199.28
2023-01-07T05:40:58.177Z,99199.28
2023-01-07T05:43:25.005Z,99189.78
2023-01-07T05:45:51.852Z,99194.94
2023-01-07T05:48:18.820Z,99182.91
2023-01-07T05:50:45.600Z,99181.16
2023-01-07T05:53:12.515Z,99177.03
2023-01-07T05:55:39.493Z,99167.06
2023-01-07T05:58:07.650Z,99175.63
2023-01-07T06:00:36.520Z,99177.84
2023-01-07T06:03:05.139Z,99183.88
2023-01-07T06:05:32.340Z,99172.69
2023-01-07T06:07:59.189Z,99173.59
2023-01-07T06:10:26.004Z,99175.19
2023-01-07T06:12:52.853Z,99170.09
2023-01-07T06:15:19.665Z,99171.88
2023-01-07T06:17:46.519Z,99155.72
2023-01-07T06:20:15.068Z,99164.03
2023-01-07T06:22:44.661Z,99142.28
2023-01-07T06:25:12.740Z,99169.31
2023-01-07T06:27:42.815Z,99170.88
2023-01-07T06:30:11.757Z,99165.06
2023-01-07T06:32:40.957Z,99165.78
2023-01-07T06:35:10.303Z,99163.97
2023-01-07T06:37:37.897Z,99166.31
2023-01-07T06:40:05.438Z,99164.56
2023-01-07T06:42:32.255Z,99160.88
2023-01-07T06:44:59.128Z,99159.34
2023-01-07T06:47:26.001Z,99154.28
2023-01-07T06:49:52.941Z,99154.59
2023-01-07T06:52:19.797Z,99159.50
2023-01-07T06:54:48.516Z,99147.25
2023-01-07T06:57:15.614Z,99143.72
2023-01-07T06:59:42.414Z,99143.56
2023-01-07T07:02:21.922Z,99139.56
2023-01-07T07:04:49.451Z,99129.03
2023-01-07T07:07:16.847Z,99135.03
2023-01-07T07:09:43.894Z,99138.38
2023-01-07T07:12:10.982Z,99120.56
2023-01-07T07:14:37.781Z,99131.53
2023-01-07T07:17:05.394Z,99132.25
2023-01-07T07:19:32.358Z,99129.75
2023-01-07T07:21:59.127Z,99125.84
2023-01-07T07:24:26.033Z,99123.84
2023-01-07T07:26:52.832Z,99120.81
2023-01-07T07:29:21.704Z,99123.16
2023-01-07T07:31:48.651Z,99119.63
2023-01-07T07:34:15.568Z,99125.53
2023-01-07T07:36:42.487Z,99121.44
2023-01-07T07:39:09.282Z,99119.38
2023-01-07T07:41:36.049Z,99123.72
2023-01-07T07:44:02.909Z,99122.78
2023-01-07T07:46:29.760Z,99113.28
2023-01-07T07:48:56.655Z,99110.69
2023-01-07T07:51:23.457Z,99104.66
2023-01-07T07:53:50.460Z,99108.16
2023-01-07T07:56:17.314Z,99106.06
2023-01-07T07:58:44.149Z,99107.72
2023-01-07T08:01:10.954Z,99098.94
2023-01-07T08:03:37.827Z,99104.09
2023-01-07T08:06:05.434Z,99103.06
2023-01-07T08:08:32.190Z,99101.31
2023-01-07T08:10:59.429Z,99095.31
2023-01-07T08:13:26.225Z,99100.47
2023-01-07T08:15:53.126Z,99104.75
2023-01-07T08:18:20.049Z,99099.63
2023-01-07T08:20:47.963Z,99098.72
2023-01-07T08:23:14.753Z,99093.53
2023-01-07T08:25:41.766Z,99088.44
2023-01-07T08:28:10.243Z,99087.63
2023-01-07T08:30:37.212Z,99084.94
2023-01-07T08:33:06.987Z,99081.44
2023-01-07T08:35:34.311Z,99079.69
2023-01-07T08:38:10.132Z,99077.25
2023-01-07T08:40:37.388Z,99084.94
2023-01-07T08:43:06.802Z,99089.13
2023-01-07T08:45:33.767Z,99081.44
2023-01-07T08:48:00.757Z,99082.28
2023-01-07T08:50:33.493Z,99078.78
2023-01-07T08:53:00.463Z,99079.63
2023-01-07T08:55:27.541Z,99076.13
2023-01-07T08:57:54.398Z,99075.22
2023-01-07T09:00:21.358Z,99076.97
2023-01-07T09:02:48.287Z,99074.31
2023-01-07T09:05:15.404Z,99063.94
2023-01-07T09:07:42.810Z,99065.66
2023-01-07T09:10:10.917Z,99069.91
2023-01-07T09:12:38.174Z,99064.66
2023-01-07T09:15:05.649Z,99062.13
2023-01-07T09:17:32.424Z,99065.50
2023-01-07T09:20:03.114Z,99073.28
2023-01-07T09:22:34.966Z,99069.91
2023-01-07T09:25:01.787Z,99070.69
2023-01-07T09:27:28.723Z,99070.75
2023-01-07T09:29:58.369Z,99064.66
2023-01-07T09:32:26.893Z,99065.50
2023-01-07T09:34:54.049Z,99063.81
2023-01-07T09:37:22.286Z,99067.31
2023-01-07T09:39:49.105Z,99069.91
2023-01-07T09:42:43.917Z,99072.50
2023-01-07T09:45:32.303Z,99074.03
2023-01-07T09:48:01.235Z,99072.34
2023-01-07T09:50:52.469Z,99072.34
2023-01-07T09:53:33.611Z,99064.66
2023-01-07T09:56:10.845Z,99061.88
2023-01-07T09:58:42.166Z,99054.84
2023-01-07T10:01:52.018Z,99060.31
2023-01-07T10:04:50.917Z,99067.72
2023-01-07T10:08:29.025Z,99057.44
2023-01-07T10:11:28.629Z,99048.84
2023-01-07T10:14:13.418Z,99052.41
2023-01-07T10:17:04.890Z,99038.56
2023-01-07T10:19:47.334Z,99030.38
2023-01-07T10:22:25.469Z,99025.34
2023-01-07T10:25:00.434Z,99022.34
2023-01-07T10:27:37.962Z,99016.72
2023-01-07T10:30:11.863Z,99006.72
2023-01-07T10:32:38.672Z,99000.94
2023-01-07T10:35:20.556Z,99010.22
2023-01-07T10:37:47.772Z,99004.63
2023-01-07T10:40:27.614Z,98998.84
2023-01-07T10:43:18.426Z,98992.22
2023-01-07T10:46:28.916Z,98986.13
2023-01-07T10:49:15.641Z,98990.63
2023-01-07T10:52:16.416Z,98987.09
2023-01-07T10:55:07.676Z,98985.28
2023-01-07T10:57:34.737Z,98979.72
2023-01-07T11:00:05.854Z,98966.13
2023-01-07T11:02:32.832Z,98967.88
2023-01-07T11:05:00.283Z,98957.88
2023-01-07T11:07:54.124Z,98961.25
2023-01-07T11:10:25.155Z,98959.41
2023-01-07T11:13:19.603Z,98952.63
2023-01-07T11:15:56.252Z,98955.97
2023-01-07T11:18:53.327Z,98939.75
2023-01-07T11:21:44.223Z,98934.97
2023-01-07T11:24:35.017Z,98938.31
2023-01-07T11:27:23.055Z,98932.22
2023-01-07T11:30:07.219Z,98928.03
2023-01-07T11:32:43.237Z,98926.72
2023-01-07T11:35:15.904Z,98911.16
2023-01-07T11:37:46.298Z,98901.50
2023-01-07T11:40:12.911Z,98904.81
2023-01-07T11:42:57.807Z,98898.66
2023-01-07T11:45:37.306Z,98899.19
2023-01-07T11:48:31.119Z,98890.91
2023-01-07T11:51:10.069Z,98891.25
2023-01-07T11:54:01.106Z,98882.53
2023-01-07T11:56:31.218Z,98876.16
2023-01-07T11:59:13.503Z,98874.50
2023-01-07T12:01:46.101Z,98871.19
2023-01-07T12:04:32.953Z,98867.16
2023-01-07T12:07:07.816Z,98854.47
2023-01-07T12:09:37.431Z,98844.78
2023-01-07T12:12:34.080Z,98847.97
2023-01-07T12:15:05.261Z,98843.56
2023-01-07T12:17:34.993Z,98836.25
2023-01-07T12:20:33.354Z,98827.69
2023-01-07T12:23:14.885Z,98827.19
2023-01-07T12:26:49.075Z,98820.06
2023-01-07T12:29:27.270Z,98797.69
2023-01-07T12:32:04.251Z,98797.19
2023-01-07T12:34:58.157Z,98794.59
2023-01-07T12:37:57.196Z,98790.16
2023-01-07T12:40:36.777Z,98786.94
2023-01-07T12:43:17.504Z,98780.50
2023-01-07T12:45:57.485Z,98780.44
2023-01-07T12:48:41.804Z,98773.72
2023-01-07T12:51:21.259Z,98764.59
2023-01-07T12:54:04.496Z,98749.41
2023-01-07T12:56:39.356Z,98752.56
2023-01-07T12:59:46.152Z,98748.94
2023-01-07T13:02:24.408Z,98740.44
2023-01-07T13:05:16.473Z,98728.09
2023-01-07T13:08:15.458Z,98727.03
2023-01-07T13:10:49.299Z,98725.94
2023-01-07T13:13:31.035Z,98734.44
2023-01-07T13:15:58.011Z,98726.47
2023-01-07T13:18:24.898Z,98724.06
2023-01-07T13:21:07.792Z,98725.78
2023-01-07T13:24:54.696Z,98717.25
2023-01-07T13:27:49.868Z,98728.94
2023-01-07T13:30:59.865Z,98722.72
2023-01-07T13:33:41.516Z,98709.13
2023-01-07T13:36:46.040Z,98710.63
2023-01-07T13:39:34.518Z,98702.47
2023-01-07T13:42:14.437Z,98704.00
2023-01-07T13:45:02.622Z,98701.06
2023-01-07T13:47:50.863Z,98692.59
2023-01-07T13:50:42.441Z,98693.78
2023-01-07T13:53:15.125Z,98688.78
2023-01-07T13:55:45.991Z,98692.13
2023-01-07T13:58:44.021Z,98685.75
2023-01-07T14:01:21.416Z,98681.75
2023-01-07T14:04:03.189Z,98685.59
2023-01-07T14:06:29.804Z,98682.94
2023-01-07T14:09:06.050Z,98676.16
2023-01-07T14:11:32.745Z,98676.97
2023-01-07T14:14:38.234Z,98675.31
2023-01-07T14:17:20.943Z,98676.31
2023-01-07T14:20:08.373Z,98679.75
2023-01-07T14:22:45.216Z,98667.06
2023-01-07T14:25:35.259Z,98668.53
2023-01-07T14:28:04.933Z,98681.44
2023-01-07T14:30:44.261Z,98674.56
2023-01-07T14:33:24.177Z,98684.84
2023-01-07T14:36:03.379Z,98686.69
2023-01-07T14:38:30.018Z,98680.78
2023-01-07T14:41:02.618Z,98677.25
2023-01-07T14:43:45.418Z,98679.28
2023-01-07T14:46:24.090Z,98676.59
2023-01-07T14:49:01.664Z,98673.91
2023-01-07T14:51:57.412Z,98684.28
2023-01-07T14:55:06.643Z,98673.91
2023-01-07T14:58:21.138Z,98673.91
2023-01-07T15:01:00.269Z,98684.03
2023-01-07T15:03:50.353Z,98674.91
2023-01-07T15:06:25.536Z,98674.53
2023-01-07T15:09:28.172Z,98663.00
2023-01-07T15:12:18.625Z,98683.72
2023-01-07T15:15:44.150Z,98679.44
2023-01-07T15:18:12.313Z,98671.75
2023-01-07T15:21:15.740Z,98679.53
2023-01-07T15:24:05.754Z,98672.78
2023-01-07T15:26:44.475Z,98671.09
2023-01-07T15:29:44.680Z,98667.75
2023-01-07T15:32:49.987Z,98676.47
2023-01-07T15:35:21.759Z,98669.72
2023-01-07T15:37:51.057Z,98658.34
2023-01-07T15:40:24.825Z,98673.66
2023-01-07T15:42:56.780Z,98671.97
2023-01-07T15:45:27.623Z,98673.91
2023-01-07T15:48:12.172Z,98681.78
2023-01-07T15:50:44.687Z,98675.00
2023-01-07T15:53:11.365Z,98676.00
2023-01-07T15:56:05.965Z,98662.47
2023-01-07T15:58:48.626Z,98652.69
2023-01-07T16:01:22.188Z,98657.78
2023-01-07T16:03:53.069Z,98649.63
2023-01-07T16:06:27.588Z,98658.25
2023-01-07T16:08:54.531Z,98661.16
2023-01-07T16:11:29.592Z,98659.56
2023-01-07T16:14:04.444Z,98659.88
2023-01-07T16:16:32.636Z,98650.19
2023-01-07T16:19:02.960Z,98658.47
2023-01-07T16:21:47.605Z,98661.22
2023-01-07T16:24:17.882Z,98663.06
2023-01-07T16:26:59.783Z,98662.38
2023-01-07T16:29:36.734Z,98662.56
2023-01-07T16:32:07.191Z,98664.56
2023-01-07T16:34:33.936Z,98670.00
2023-01-07T16:37:03.344Z,98674.44
2023-01-07T16:39:42.603Z,98679.94
2023-01-07T16:42:20.512Z,98668.47
2023-01-07T16:44:49.377Z,98694.66
2023-01-07T16:47:22.701Z,98689.63
2023-01-07T16:49:54.826Z,98697.56
2023-01-07T16:52:27.925Z,98701.28
2023-01-07T16:54:54.785Z,98699.13
2023-01-07T16:57:40.043Z,98695.00
2023-01-07T17:00:18.202Z,98690.09
2023-01-07T17:02:59.692Z,98693.22
2023-01-07T17:05:29.500Z,98687.22
2023-01-07T17:08:02.770Z,98691.19
2023-01-07T17:10:33.515Z,98681.84
2023-01-07T17:13:02.915Z,98680.22
2023-01-07T17:15:34.423Z,98686.56
2023-01-07T17:18:14.368Z,98678.94
2023-01-07T17:20:50.048Z,98679.97
2023-01-07T17:23:25.877Z,98681.78
2023-01-07T17:26:17.258Z,98674.47
2023-01-07T17:28:54.319Z,98668.53
2023-01-07T17:31:23.429Z,98671.13
2023-01-07T17:33:51.891Z,98660.34
2023-01-07T17:36:24.524Z,98663.59
2023-01-07T17:38:52.010Z,98641.72
2023-01-07T17:41:40.425Z,98645.56
2023-01-07T17:44:14.483Z,98653.34
2023-01-07T17:46:41.962Z,98638.59
2023-01-07T17:49:11.414Z,98648.94
2023-01-07T17:51:42.193Z,98643.63
2023-01-07T17:54:22.169Z,98658.81
2023-01-07T17:56:49.554Z,98661.25
2023-01-07T17:59:22.672Z,98639.34
2023-01-07T18:01:51.785Z,98645.28
2023-01-07T18:04:18.984Z,98647.09
2023-01-07T18:06:45.964Z,98651.22
2023-01-07T18:09:13.577Z,98647.84
2023-01-07T18:12:02.991Z,98635.69
2023-01-07T18:14:29.828Z,98649.41
2023-01-07T18:16:56.875Z,98657.47
2023-01-07T18:19:23.868Z,98661.34
2023-01-07T18:21:50.706Z,98669.19
2023-01-07T18:24:21.058Z,98665.91
2023-01-07T18:26:48.590Z,98668.59
2023-01-07T18:29:15.461Z,98657.56
2023-01-07T18:31:44.477Z,98647.22
2023-01-07T18:34:14.043Z,98655.13
2023-01-07T18:36:41.563Z,98657.69
2023-01-07T18:39:11.220Z,98648.66
2023-01-07T18:41:39.835Z,98648.81
2023-01-07T18:44:06.952Z,98650.84
2023-01-07T18:46:34.061Z,98644.50
2023-01-07T18:49:00.876Z,98648.16
2023-01-07T18:51:27.830Z,98645.66
2023-01-07T18:53:54.606Z,98649.34
2023-01-07T18:56:21.447Z,98653.75
2023-01-07T18:58:52.702Z,98651.06
2023-01-07T19:01:19.912Z,98652.63
2023-01-07T19:03:47.483Z,98641.38
2023-01-07T19:06:14.933Z,98657.25
2023-01-07T19:08:41.725Z,98654.69
2023-01-07T19:11:12.220Z,98645.22
2023-01-07T19:13:39.374Z,98636.16
2023-01-07T19:16:12.412Z,98647.59
2023-01-07T19:18:39.897Z,98637.56
2023-01-07T19:21:10.842Z,98645.53
2023-01-07T19:23:37.681Z,98626.94
2023-01-07T19:26:08.425Z,98637.13
2023-01-07T19:28:35.315Z,98640.72
2023-01-07T19:31:06.620Z,98623.13
2023-01-07T19:33:34.224Z,98633.88
2023-01-07T19:36:08.953Z,98619.06
2023-01-07T19:38:47.731Z,98629.97
2023-01-07T19:41:18.308Z,98626.53
2023-01-07T19:43:46.342Z,98622.22
2023-01-07T19:46:15.458Z,98627.25
2023-01-07T19:48:42.775Z,98624.75
2023-01-07T19:51:10.934Z,98623.25
2023-01-07T19:53:38.288Z,98621.78
2023-01-07T19:56:11.299Z,98615.22
2023-01-07T19:58:39.439Z,98631.34
2023-01-07T20:01:13.221Z,98625.41
2023-01-07T20:03:40.364Z,98626.25
2023-01-07T20:06:16.560Z,98627.16
2023-01-07T20:08:43.822Z,98631.41
2023-01-07T20:11:11.237Z,98619.69
2023-01-07T20:13:39.154Z,98624.84
2023-01-07T20:16:13.319Z,98624.16
2023-01-07T20:18:49.277Z,98625.28
2023-01-07T20:21:19.767Z,98610.34
2023-01-07T20:23:47.196Z,98610.66
2023-01-07T20:26:17.644Z,98607.66
2023-01-07T20:28:44.732Z,98611.50
2023-01-07T20:31:15.222Z,98596.09
2023-01-07T20:33:44.166Z,98597.69
2023-01-07T20:36:14.865Z,98603.84
2023-01-07T20:38:43.019Z,98598.16
2023-01-07T20:41:21.396Z,98592.56
2023-01-07T20:44:10.560Z,98571.47
2023-01-07T20:46:39.178Z,98593.34
2023-01-07T20:49:06.329Z,98589.78
2023-01-07T20:51:33.965Z,98596.63
2023-01-07T20:54:00.722Z,98589.66
2023-01-07T20:56:31.786Z,98593.13
2023-01-07T20:59:00.774Z,98594.13
2023-01-07T21:01:28.042Z,98591.13
2023-01-07T21:03:55.480Z,98596.44
2023-01-07T21:06:22.650Z,98601.59
2023-01-07T21:08:50.276Z,98599.94
2023-01-07T21:11:20.808Z,98594.88
2023-01-07T21:13:48.778Z,98584.69
2023-01-07T21:16:16.034Z,98567.41
2023-01-07T21:18:43.180Z,98582.13
2023-01-07T21:21:17.238Z,98578.50
2023-01-07T21:23:46.548Z,98586.16
2023-01-07T21:26:14.798Z,98578.41
2023-01-07T21:28:44.431Z,98588.81
2023-01-07T21:31:15.153Z,98587.16
2023-01-07T21:33:42.358Z,98584.63
2023-01-07T21:36:14.842Z,98583.78
2023-01-07T21:38:41.776Z,98570.41
2023-01-07T21:41:14.213Z,98586.63
2023-01-07T21:43:40.996Z,98587.59
2023-01-07T21:46:08.596Z,98574.44
2023-01-07T21:48:38.907Z,98599.91
2023-01-07T21:51:18.871Z,98591.25
2023-01-07T21:53:45.886Z,98579.41
2023-01-07T21:56:16.637Z,98576.94
2023-01-07T21:58:45.706Z,98573.06
2023-01-07T22:01:13.698Z,98574.06
2023-01-07T22:03:44.784Z,98583.72
2023-01-07T22:06:28.434Z,98578.34
2023-01-07T22:09:01.407Z,98575.84
2023-01-07T22:11:28.976Z,98571.06
2023-01-07T22:13:58.065Z,98582.34
2023-01-07T22:16:27.536Z,98582.34
2023-01-07T22:18:54.527Z,98572.13
2023-01-07T22:21:21.334Z,98562.03
2023-01-07T22:23:48.498Z,98562.81
2023-01-07T22:26:17.920Z,98551.53
2023-01-07T22:28:50.146Z,98550.72
2023-01-07T22:31:33.343Z,98551.09
2023-01-07T22:34:00.273Z,98543.66
2023-01-07T22:36:45.884Z,98552.22
2023-01-07T22:39:21.455Z,98563.56
2023-01-07T22:41:51.061Z,98560.22
2023-01-07T22:44:24.589Z,98558.34
2023-01-07T22:46:53.160Z,98549.84
2023-01-07T22:49:21.506Z,98557.50
2023-01-07T22:51:49.112Z,98555.88
2023-01-07T22:54:16.826Z,98536.69
2023-01-07T22:56:44.572Z,98548.28
2023-01-07T22:59:11.679Z,98532.66
2023-01-07T23:01:39.747Z,98551.84
2023-01-07T23:04:06.745Z,98538.25
2023-01-07T23:06:33.584Z,98536.03
2023-01-07T23:09:00.358Z,98538.72
2023-01-07T23:11:45.471Z,98534.47
2023-01-07T23:14:12.367Z,98540.44
2023-01-07T23:16:39.275Z,98532.00
2023-01-07T23:19:06.665Z,98521.19
2023-01-07T23:21:33.494Z,98527.22
2023-01-07T23:24:00.742Z,98531.47
2023-01-07T23:26:27.697Z,98529.75
2023-01-07T23:28:54.507Z,98523.69
2023-01-07T23:31:21.381Z,98517.41
2023-01-07T23:33:48.413Z,98499.53
2023-01-07T23:36:15.241Z,98508.97
2023-01-07T23:38:42.031Z,98486.38
2023-01-07T23:41:11.476Z,98513.63
2023-01-07T23:43:38.656Z,98505.09
2023-01-07T23:46:07.332Z,98505.03
2023-01-07T23:48:37.065Z,98497.25
2023-01-07T23:51:11.427Z,98486.97
2023-01-07T23:53:38.371Z,98492.84
2023-01-07T23:56:06.364Z,98496.34
2023-01-07T23:58:34.713Z,98481.69
